TimeEST,TemperatureF,Dew PointF,Humidity,Sea Level PressureIn,VisibilityMPH,Wind Direction,Wind SpeedMPH,Gust SpeedMPH,PrecipitationIn,Events,Conditions,WindDirDegrees,DateUTC
12:15 AM,35.6,35.6,100,30.26,10.0,NNE,16.1,24.2,N/A,,Overcast,30,2014-02-12 05:15:00
12:35 AM,35.6,35.6,100,30.26,10.0,NNE,15.0,25.3,N/A,,Overcast,20,2014-02-12 05:35:00
12:55 AM,35.6,35.6,100,30.26,7.0,NNE,15.0,-,N/A,,Overcast,30,2014-02-12 05:55:00
1:15 AM,35.6,35.6,100,30.24,5.0,NNE,16.1,-,N/A,,Overcast,20,2014-02-12 06:15:00
1:35 AM,35.6,35.6,100,30.23,7.0,NNE,16.1,25.3,N/A,,Overcast,20,2014-02-12 06:35:00
1:55 AM,35.6,35.6,100,30.23,7.0,NNE,13.8,20.7,N/A,,Overcast,30,2014-02-12 06:55:00
2:15 AM,35.6,35.6,100,30.21,7.0,NNE,17.3,-,N/A,,Overcast,30,2014-02-12 07:15:00
2:35 AM,35.6,35.6,100,30.22,10.0,NNE,16.1,-,N/A,,Light Drizzle,30,2014-02-12 07:35:00
2:55 AM,35.6,35.6,100,30.21,7.0,NNE,18.4,-,N/A,,Overcast,30,2014-02-12 07:55:00
3:15 AM,35.6,35.6,100,30.21,7.0,North,16.1,20.7,N/A,,Overcast,10,2014-02-12 08:15:00
3:35 AM,33.8,33.8,100,30.20,7.0,NNE,17.3,24.2,N/A,,Overcast,30,2014-02-12 08:35:00
3:55 AM,33.8,33.8,100,30.19,7.0,NNE,20.7,-,N/A,,Overcast,20,2014-02-12 08:55:00
4:15 AM,33.8,33.8,100,30.20,5.0,NNE,18.4,24.2,N/A,Snow,Light Snow,20,2014-02-12 09:15:00
4:35 AM,33.8,33.8,100,30.23,7.0,NNE,16.1,-,N/A,,Overcast,20,2014-02-12 09:35:00
4:55 AM,33.8,33.8,100,30.20,7.0,NNE,16.1,21.9,N/A,,Overcast,20,2014-02-12 09:55:00
5:15 AM,32.0,32.0,100,30.20,5.0,NNE,20.7,27.6,N/A,Snow,Light Snow,20,2014-02-12 10:15:00
5:35 AM,32.0,32.0,100,30.18,10.0,NNE,26.5,-,N/A,,Overcast,20,2014-02-12 10:35:00
5:55 AM,33.8,33.8,100,30.19,10.0,NNE,24.2,27.6,N/A,,Overcast,20,2014-02-12 10:55:00
6:15 AM,33.8,33.8,100,30.19,4.0,NNE,23.0,29.9,0.01,Snow,Light Snow,20,2014-02-12 11:15:00
6:35 AM,32.0,32.0,100,30.21,3.0,NNE,19.6,23.0,0.01,Snow,Light Snow,20,2014-02-12 11:35:00
6:55 AM,33.8,33.8,100,30.18,4.0,NNE,21.9,27.6,0.01,Snow,Light Snow,30,2014-02-12 11:55:00
7:15 AM,33.8,33.8,100,30.17,5.0,NE,20.7,-,N/A,,Overcast,50,2014-02-12 12:15:00
7:35 AM,33.8,33.8,100,30.16,7.0,NNE,23.0,-,N/A,,Overcast,30,2014-02-12 12:35:00
7:55 AM,33.8,33.8,100,30.16,4.0,NE,23.0,-,N/A,Snow,Light Snow,40,2014-02-12 12:55:00
8:15 AM,33.8,33.8,100,30.17,3.0,NE,21.9,27.6,N/A,Snow,Light Snow,40,2014-02-12 13:15:00
8:35 AM,33.8,33.8,100,30.17,2.5,NNE,21.9,29.9,N/A,Snow,Light Snow,20,2014-02-12 13:35:00
8:55 AM,33.8,33.8,100,30.17,5.0,North,11.5,16.1,N/A,,Overcast,10,2014-02-12 13:55:00
9:15 AM,33.8,33.8,100,30.16,10.0,NNE,16.1,21.9,N/A,,Overcast,30,2014-02-12 14:15:00
9:35 AM,33.8,33.8,100,30.17,10.0,NNE,19.6,-,N/A,,Overcast,30,2014-02-12 14:35:00
9:55 AM,33.8,33.8,100,30.17,10.0,NNE,24.2,27.6,N/A,,Overcast,30,2014-02-12 14:55:00
10:15 AM,33.8,33.8,100,30.16,7.0,NNE,19.6,26.5,N/A,,Overcast,30,2014-02-12 15:15:00
10:35 AM,33.8,33.8,100,30.15,2.5,NNE,21.9,28.8,N/A,Snow,Light Snow,30,2014-02-12 15:35:00
10:55 AM,33.8,33.8,100,30.13,7.0,NE,26.5,29.9,N/A,,Overcast,40,2014-02-12 15:55:00
11:15 AM,35.6,35.6,100,30.11,5.0,NE,24.2,-,N/A,,Overcast,40,2014-02-12 16:15:00
11:35 AM,35.6,35.6,100,30.13,10.0,NNE,15.0,28.8,N/A,,Overcast,20,2014-02-12 16:35:00
11:55 AM,35.6,35.6,100,30.15,3.0,NW,12.7,17.3,N/A,Rain,Rain,320,2014-02-12 16:55:00
12:15 PM,33.8,33.8,100,30.11,10.0,North,13.8,-,N/A,,Overcast,10,2014-02-12 17:15:00
12:35 PM,33.8,33.8,100,30.08,2.5,NNE,15.0,19.6,N/A,Snow,Light Snow,30,2014-02-12 17:35:00
12:55 PM,33.8,33.8,100,30.05,7.0,NE,16.1,-,N/A,,Overcast,40,2014-02-12 17:55:00
1:15 PM,35.6,35.6,100,30.01,10.0,NE,19.6,25.3,N/A,,Light Drizzle,40,2014-02-12 18:15:00
1:35 PM,35.6,35.6,100,30.03,10.0,NNE,15.0,28.8,N/A,,Overcast,20,2014-02-12 18:35:00
1:55 PM,35.6,35.6,100,30.03,10.0,North,10.4,18.4,N/A,,Overcast,360,2014-02-12 18:55:00
2:15 PM,35.6,35.6,100,30.01,10.0,North,10.4,-,N/A,,Overcast,360,2014-02-12 19:15:00
2:35 PM,35.6,35.6,100,29.99,10.0,North,10.4,16.1,N/A,,Overcast,10,2014-02-12 19:35:00
2:55 PM,35.6,35.6,100,29.97,10.0,NNE,12.7,18.4,N/A,,Overcast,20,2014-02-12 19:55:00
3:15 PM,35.6,35.6,100,29.95,10.0,NNE,13.8,19.6,N/A,,Overcast,20,2014-02-12 20:15:00
3:35 PM,35.6,35.6,100,29.96,10.0,North,6.9,12.7,N/A,,Overcast,10,2014-02-12 20:35:00
3:55 PM,35.6,35.6,100,29.93,4.0,NNE,17.3,-,N/A,Snow,Light Snow,30,2014-02-12 20:55:00
4:15 PM,35.6,35.6,100,29.94,10.0,NNE,15.0,19.6,N/A,,Overcast,30,2014-02-12 21:15:00
4:35 PM,35.6,35.6,100,29.91,10.0,NE,19.6,-,N/A,,Overcast,40,2014-02-12 21:35:00
4:55 PM,35.6,35.6,100,29.90,10.0,NE,18.4,24.2,N/A,,Overcast,50,2014-02-12 21:55:00
5:15 PM,35.6,35.6,100,29.95,10.0,NW,10.4,-,N/A,,Overcast,320,2014-02-12 22:15:00
5:35 PM,35.6,35.6,100,29.93,10.0,North,6.9,-,N/A,,Overcast,10,2014-02-12 22:35:00
5:55 PM,35.6,35.6,100,29.91,10.0,North,9.2,-,N/A,Rain,Light Rain,10,2014-02-12 22:55:00
6:15 PM,35.6,35.6,100,29.88,10.0,NNE,15.0,18.4,N/A,Rain,Light Rain,20,2014-02-12 23:15:00
6:35 PM,35.6,35.6,100,29.87,10.0,NNE,12.7,18.4,N/A,,Overcast,20,2014-02-12 23:35:00
6:55 PM,35.6,35.6,100,29.86,10.0,NNE,17.3,-,N/A,,Overcast,20,2014-02-12 23:55:00
7:15 PM,35.6,35.6,100,29.84,10.0,NNE,18.4,-,N/A,,Light Drizzle,30,2014-02-13 00:15:00
7:35 PM,35.6,35.6,100,29.83,10.0,NNE,13.8,-,N/A,,Overcast,20,2014-02-13 00:35:00
7:55 PM,35.6,35.6,100,29.83,10.0,NNE,15.0,-,N/A,,Overcast,20,2014-02-13 00:55:00
8:15 PM,35.6,35.6,100,29.81,10.0,NNE,17.3,-,N/A,,Overcast,20,2014-02-13 01:15:00
8:35 PM,35.6,35.6,100,29.79,10.0,NNE,17.3,-,N/A,,Overcast,20,2014-02-13 01:35:00
8:55 PM,35.6,35.6,100,29.80,10.0,NNW,10.4,18.4,N/A,,Overcast,340,2014-02-13 01:55:00
9:15 PM,35.6,35.6,100,29.76,10.0,NNE,12.7,-,N/A,,Overcast,30,2014-02-13 02:15:00
9:35 PM,35.6,35.6,100,29.75,10.0,North,12.7,-,N/A,,Overcast,360,2014-02-13 02:35:00
9:55 PM,35.6,35.6,100,29.80,10.0,NW,8.1,-,N/A,,Overcast,320,2014-02-13 02:55:00
10:15 PM,35.6,35.6,100,29.75,10.0,NE,13.8,-,N/A,,Overcast,50,2014-02-13 03:15:00
10:35 PM,35.6,35.6,100,29.76,10.0,NNE,9.2,-,N/A,,Overcast,30,2014-02-13 03:35:00
10:55 PM,35.6,35.6,100,29.75,10.0,NNE,11.5,-,N/A,,Overcast,20,2014-02-13 03:55:00
11:15 PM,35.6,35.6,100,29.74,10.0,NNE,10.4,-,N/A,,Overcast,30,2014-02-13 04:15:00
11:35 PM,35.6,35.6,100,29.73,10.0,NNE,10.4,-,N/A,,Overcast,20,2014-02-13 04:35:00
11:55 PM,35.6,35.6,100,29.72,10.0,North,8.1,-,N/A,,Overcast,10,2014-02-13 04:55:00